Time;durP1;ratioP1;P1;durP2;ratioP2;P2;SDS_P1;SDS_P2;PMS_P1;PMS_P2;Temp;Humidity;BMP_temperature;BMP_pressure;BME280_temperature;BME280_humidity;BME280_pressure;Samples;Min_cycle;Max_cycle;Signal;HPM_P1;HPM_P2
2022/05/26 00:01:23;;;;;;;;;4.00;2.00;;;;;;;;5082240;27;45487;-71
2022/05/26 00:03:48;;;;;;;;;3.00;2.00;;;;;;;;5094962;27;45566;-70
2022/05/26 00:06:15;;;;;;;;;1.00;1.00;;;;;;;;5095213;27;45809;-71
2022/05/26 00:08:40;;;;;;;;;2.00;1.00;;;;;;;;5095231;27;45399;-71
2022/05/26 00:11:07;;;;;;;;;1.00;1.00;;;;;;;;5095671;27;45340;-71
2022/05/26 00:13:33;;;;;;;;;2.75;1.00;;;;;;;;5095226;27;45468;-71
2022/05/26 00:15:59;;;;;;;;;1.50;1.50;;;;;;;;5094698;27;45635;-71
2022/05/26 00:18:24;;;;;;;;;0.25;0.25;;;;;;;;5095028;27;45410;-71
2022/05/26 00:20:49;;;;;;;;;0.00;0.00;;;;;;;;5095330;27;45419;-71
2022/05/26 00:23:14;;;;;;;;;1.00;1.00;;;;;;;;5095974;27;45486;-71
2022/05/26 00:25:40;;;;;;;;;1.75;1.75;;;;;;;;5094988;27;46300;-71
2022/05/26 00:28:05;;;;;;;;;1.75;0.75;;;;;;;;5094953;27;45402;-71
2022/05/26 00:30:31;;;;;;;;;1.25;1.00;;;;;;;;5094920;27;45530;-71
2022/05/26 00:32:56;;;;;;;;;1.25;1.00;;;;;;;;5095558;27;45293;-71
2022/05/26 00:35:22;;;;;;;;;2.00;1.00;;;;;;;;5095598;27;45860;-71
2022/05/26 00:37:47;;;;;;;;;2.00;1.00;;;;;;;;5094894;27;45455;-71
2022/05/26 00:40:13;;;;;;;;;2.50;1.00;;;;;;;;5094947;27;45288;-71
2022/05/26 00:42:38;;;;;;;;;2.00;2.00;;;;;;;;5095044;27;45364;-70
2022/05/26 00:45:04;;;;;;;;;1.00;0.00;;;;;;;;5094447;27;47014;-70
2022/05/26 00:47:32;;;;;;;;;4.00;0.00;;;;;;;;5095318;27;45456;-71
2022/05/26 00:49:57;;;;;;;;;0.00;0.00;;;;;;;;5094236;27;45535;-71
2022/05/26 00:52:25;;;;;;;;;1.75;1.00;;;;;;;;5095117;27;45278;-70
2022/05/26 00:54:52;;;;;;;;;0.75;0.75;;;;;;;;5094250;27;46324;-70
2022/05/26 00:57:21;;;;;;;;;2.00;0.00;;;;;;;;5094787;27;45473;-70
2022/05/26 00:59:56;;;;;;;;;2.50;1.00;;;;;;;;5094505;27;45349;-71
2022/05/26 01:02:23;;;;;;;;;1.00;1.00;;;;;;;;5091029;27;45392;-71
2022/05/26 01:04:50;;;;;;;;;0.00;0.00;;;;;;;;5094345;27;46033;-70
2022/05/26 01:07:19;;;;;;;;;1.75;1.00;;;;;;;;5094671;27;45385;-70
2022/05/26 01:09:45;;;;;;;;;2.00;1.00;;;;;;;;5094779;27;45554;-71
2022/05/26 01:12:11;;;;;;;;;0.50;0.50;;;;;;;;5094565;27;45483;-71
2022/05/26 01:14:44;;;;;;;;;1.00;1.00;;;;;;;;5095567;27;45396;-71
2022/05/26 01:17:10;;;;;;;;;1.00;1.00;;;;;;;;5097052;27;45447;-71
2022/05/26 01:19:47;;;;;;;;;1.00;1.00;;;;;;;;5097796;27;45309;-71
2022/05/26 01:22:12;;;;;;;;;1.00;1.00;;;;;;;;5098017;27;47030;-71
2022/05/26 01:24:45;;;;;;;;;2.00;0.25;;;;;;;;5097556;27;46678;-71
2022/05/26 01:27:10;;;;;;;;;3.00;0.00;;;;;;;;5097759;27;45314;-70
2022/05/26 01:29:54;;;;;;;;;0.40;0.40;;;;;;;;5098253;27;45570;-71
2022/05/26 01:32:23;;;;;;;;;1.00;1.00;;;;;;;;5098349;27;45292;-71
2022/05/26 01:35:11;;;;;;;;;0.00;0.00;;;;;;;;5096922;27;46231;-71
2022/05/26 01:37:42;;;;;;;;;1.00;1.00;;;;;;;;5096956;27;45480;-71
2022/05/26 01:40:18;;;;;;;;;0.00;0.00;;;;;;;;5097352;27;45400;-70
2022/05/26 01:42:59;;;;;;;;;2.00;0.00;;;;;;;;5096900;27;45441;-71
2022/05/26 01:45:24;;;;;;;;;3.00;0.50;;;;;;;;5097294;27;46225;-71
2022/05/26 01:47:59;;;;;;;;;2.50;1.50;;;;;;;;5097703;27;45423;-70
2022/05/26 01:50:30;;;;;;;;;3.25;2.00;;;;;;;;5094311;27;45283;-71
2022/05/26 01:53:14;;;;;;;;;0.00;0.00;;;;;;;;5097534;27;45311;-71
2022/05/26 01:55:52;;;;;;;;;3.00;1.00;;;;;;;;5096863;27;46204;-71
2022/05/26 01:58:24;;;;;;;;;2.00;1.00;;;;;;;;5097391;27;45488;-70
2022/05/26 02:00:52;;;;;;;;;1.00;1.00;;;;;;;;5097248;27;45309;-71
2022/05/26 02:03:20;;;;;;;;;1.25;0.00;;;;;;;;5097501;27;45459;-70
2022/05/26 02:05:49;;;;;;;;;1.00;1.00;;;;;;;;5097232;27;47009;-71
2022/05/26 02:08:17;;;;;;;;;0.25;0.25;;;;;;;;5097834;27;45412;-70
2022/05/26 02:10:42;;;;;;;;;0.00;0.00;;;;;;;;5096840;27;45575;-70
2022/05/26 02:13:10;;;;;;;;;1.50;1.00;;;;;;;;5096834;27;46100;-71
2022/05/26 02:15:41;;;;;;;;;0.50;0.00;;;;;;;;5097020;27;45493;-71
2022/05/26 02:18:10;;;;;;;;;1.25;0.75;;;;;;;;5096922;27;45430;-70
2022/05/26 02:20:41;;;;;;;;;0.00;0.00;;;;;;;;5097563;27;45775;-70
2022/05/26 02:23:26;;;;;;;;;0.00;0.00;;;;;;;;5095632;27;45358;-71
2022/05/26 02:25:52;;;;;;;;;1.25;1.25;;;;;;;;5096018;27;46252;-71
2022/05/26 02:28:17;;;;;;;;;1.00;1.00;;;;;;;;5096694;27;45563;-71
2022/05/26 02:30:43;;;;;;;;;1.00;0.75;;;;;;;;5097109;27;45515;-71
2022/05/26 02:33:10;;;;;;;;;0.75;0.75;;;;;;;;5097081;27;45571;-71
2022/05/26 02:35:38;;;;;;;;;1.00;1.00;;;;;;;;5096944;27;46110;-71
2022/05/26 02:38:26;;;;;;;;;1.75;1.75;;;;;;;;5097314;27;45378;-70
2022/05/26 02:40:53;;;;;;;;;2.25;1.00;;;;;;;;5096503;27;45559;-71
2022/05/26 02:43:21;;;;;;;;;1.00;1.00;;;;;;;;5096616;27;45460;-71
2022/05/26 02:45:52;;;;;;;;;2.50;1.50;;;;;;;;5096273;27;46271;-71
2022/05/26 02:48:17;;;;;;;;;1.00;1.00;;;;;;;;5096493;27;45389;-71
2022/05/26 02:50:49;;;;;;;;;1.50;1.50;;;;;;;;5097049;27;45488;-71
2022/05/26 02:53:14;;;;;;;;;1.00;1.00;;;;;;;;5097126;27;45543;-70
2022/05/26 02:55:39;;;;;;;;;2.00;2.00;;;;;;;;5095973;27;46256;-71
2022/05/26 02:58:11;;;;;;;;;1.50;1.50;;;;;;;;5096501;27;45414;-70
2022/05/26 03:01:00;;;;;;;;;1.00;1.00;;;;;;;;5096419;27;45384;-71
2022/05/26 03:03:33;;;;;;;;;0.75;0.75;;;;;;;;5096186;27;45276;-71
2022/05/26 03:06:01;;;;;;;;;0.00;0.00;;;;;;;;5080566;27;46960;-70
2022/05/26 03:08:28;;;;;;;;;1.00;1.00;;;;;;;;5096344;27;45380;-71
2022/05/26 03:11:01;;;;;;;;;0.50;0.50;;;;;;;;5096270;27;45270;-70
2022/05/26 03:13:26;;;;;;;;;1.00;1.00;;;;;;;;5096368;27;45508;-71
2022/05/26 03:15:52;;;;;;;;;2.00;0.00;;;;;;;;5095978;27;45493;-71
2022/05/26 03:18:18;;;;;;;;;0.75;0.75;;;;;;;;5096362;27;45589;-71
2022/05/26 03:20:43;;;;;;;;;1.00;1.00;;;;;;;;5096486;27;45503;-71
2022/05/26 03:23:08;;;;;;;;;1.00;1.00;;;;;;;;5096107;27;45316;-71
2022/05/26 03:25:33;;;;;;;;;0.25;0.25;;;;;;;;5095795;27;45365;-70
2022/05/26 03:27:58;;;;;;;;;1.50;0.00;;;;;;;;5095982;27;45376;-70
2022/05/26 03:30:24;;;;;;;;;0.00;0.00;;;;;;;;5096265;27;45520;-71
2022/05/26 03:32:49;;;;;;;;;1.00;0.00;;;;;;;;5096482;27;45439;-71
2022/05/26 03:40:57;;;;;;;;;0.50;0.50;;;;;;;;5095790;27;46899;-70
2022/05/26 03:43:32;;;;;;;;;1.00;1.00;;;;;;;;5095783;27;45298;-70
2022/05/26 03:45:58;;;;;;;;;1.25;0.75;;;;;;;;5095628;27;46311;-70
2022/05/26 03:48:24;;;;;;;;;1.50;1.00;;;;;;;;5095792;27;45412;-70
2022/05/26 03:50:49;;;;;;;;;0.00;0.00;;;;;;;;5095849;27;45265;-71
2022/05/26 03:53:14;;;;;;;;;2.25;0.00;;;;;;;;5096256;27;45278;-70
2022/05/26 03:55:40;;;;;;;;;0.00;0.00;;;;;;;;5095553;27;46206;-69
2022/05/26 03:58:05;;;;;;;;;0.00;0.00;;;;;;;;5095522;27;45631;-70
2022/05/26 04:00:31;;;;;;;;;0.00;0.00;;;;;;;;5095853;27;45382;-70
2022/05/26 04:02:56;;;;;;;;;0.75;0.00;;;;;;;;5095640;27;45528;-70
2022/05/26 04:05:21;;;;;;;;;0.00;0.00;;;;;;;;5096092;27;46191;-70
2022/05/26 04:07:47;;;;;;;;;1.00;1.00;;;;;;;;5095280;27;45486;-70
2022/05/26 04:10:12;;;;;;;;;0.50;0.50;;;;;;;;5095417;27;45439;-70
2022/05/26 04:12:38;;;;;;;;;0.00;0.00;;;;;;;;5095426;27;45448;-70
2022/05/26 04:15:04;;;;;;;;;0.00;0.00;;;;;;;;5095305;27;45486;-71
2022/05/26 04:17:30;;;;;;;;;0.00;0.00;;;;;;;;5095613;27;45417;-70
2022/05/26 04:19:55;;;;;;;;;1.00;1.00;;;;;;;;5095847;27;45464;-70
2022/05/26 04:22:23;;;;;;;;;0.50;0.50;;;;;;;;5094904;27;45450;-70
2022/05/26 04:24:50;;;;;;;;;0.75;0.00;;;;;;;;5094893;27;46086;-70
2022/05/26 04:27:17;;;;;;;;;0.50;0.50;;;;;;;;5095288;27;45462;-70
2022/05/26 04:29:43;;;;;;;;;0.00;0.00;;;;;;;;5095425;27;45921;-70
2022/05/26 04:32:08;;;;;;;;;1.00;1.00;;;;;;;;5095712;27;45341;-70
2022/05/26 04:34:33;;;;;;;;;0.75;0.75;;;;;;;;5095098;27;46045;-70
2022/05/26 04:36:59;;;;;;;;;1.00;0.25;;;;;;;;5094485;27;45484;-70
2022/05/26 04:39:24;;;;;;;;;2.00;1.00;;;;;;;;5095094;27;45580;-69
2022/05/26 04:41:49;;;;;;;;;2.75;1.50;;;;;;;;5094848;27;45249;-70
2022/05/26 04:44:16;;;;;;;;;0.00;0.00;;;;;;;;5095368;27;45396;-70
2022/05/26 04:46:41;;;;;;;;;2.25;1.00;;;;;;;;5094595;27;47755;-70
2022/05/26 04:49:07;;;;;;;;;2.00;1.00;;;;;;;;5096642;27;45393;-70
2022/05/26 04:51:36;;;;;;;;;1.00;1.00;;;;;;;;5098011;27;45433;-70
2022/05/26 04:54:02;;;;;;;;;1.00;1.00;;;;;;;;5080555;27;47907;-70
2022/05/26 04:56:27;;;;;;;;;0.50;0.25;;;;;;;;5098295;27;45450;-70
2022/05/26 04:58:52;;;;;;;;;1.00;1.00;;;;;;;;5098078;27;45234;-70
2022/05/26 05:01:19;;;;;;;;;1.00;1.00;;;;;;;;5097847;27;45458;-70
2022/05/26 05:03:44;;;;;;;;;1.75;1.75;;;;;;;;5097609;27;45713;-70
2022/05/26 05:06:09;;;;;;;;;1.00;1.00;;;;;;;;5097169;27;45403;-70
2022/05/26 05:08:35;;;;;;;;;1.00;1.00;;;;;;;;5098416;27;45357;-70
2022/05/26 05:11:00;;;;;;;;;0.00;0.00;;;;;;;;5098513;27;45490;-71
2022/05/26 05:13:25;;;;;;;;;3.25;1.50;;;;;;;;5097522;27;45437;-70
2022/05/26 05:15:53;;;;;;;;;1.50;1.00;;;;;;;;5097637;27;45419;-70
2022/05/26 05:18:19;;;;;;;;;1.00;1.00;;;;;;;;5097842;27;45409;-71
2022/05/26 05:20:44;;;;;;;;;1.75;1.75;;;;;;;;5097852;27;45416;-69
2022/05/26 05:23:12;;;;;;;;;3.75;1.75;;;;;;;;5098153;27;47606;-70
2022/05/26 05:25:39;;;;;;;;;2.00;0.75;;;;;;;;5097145;27;45341;-71
2022/05/26 05:28:09;;;;;;;;;1.00;1.00;;;;;;;;5097876;27;45519;-71
2022/05/26 05:30:34;;;;;;;;;1.00;1.00;;;;;;;;5097707;27;45430;-70
2022/05/26 05:32:59;;;;;;;;;1.80;0.20;;;;;;;;5097971;27;46020;-71
2022/05/26 05:35:26;;;;;;;;;1.00;1.00;;;;;;;;5097927;27;45345;-71
2022/05/26 05:37:52;;;;;;;;;0.50;0.50;;;;;;;;5097479;27;45326;-71
2022/05/26 05:40:17;;;;;;;;;2.00;2.00;;;;;;;;5096698;27;45243;-71
2022/05/26 05:42:42;;;;;;;;;2.50;1.00;;;;;;;;5096764;27;46157;-70
2022/05/26 05:45:08;;;;;;;;;2.00;2.00;;;;;;;;5097228;27;45421;-71
2022/05/26 05:47:33;;;;;;;;;1.00;1.00;;;;;;;;5097262;27;45306;-71
2022/05/26 05:49:58;;;;;;;;;0.75;0.25;;;;;;;;5084231;27;45400;-71
2022/05/26 05:52:24;;;;;;;;;2.50;2.50;;;;;;;;5097023;27;47127;-70
2022/05/26 05:54:49;;;;;;;;;1.75;0.50;;;;;;;;5096916;27;45468;-71
2022/05/26 05:57:15;;;;;;;;;1.00;1.00;;;;;;;;5097124;27;45481;-71
2022/05/26 05:59:40;;;;;;;;;1.00;1.00;;;;;;;;5096376;27;45388;-71
2022/05/26 06:02:06;;;;;;;;;2.25;1.00;;;;;;;;5097479;27;46092;-70
2022/05/26 06:04:32;;;;;;;;;0.75;0.75;;;;;;;;5096587;27;45514;-71
2022/05/26 06:06:58;;;;;;;;;0.75;0.50;;;;;;;;5097071;27;45428;-71
2022/05/26 06:09:23;;;;;;;;;1.00;0.00;;;;;;;;5096661;27;45432;-70
2022/05/26 06:11:49;;;;;;;;;3.75;1.00;;;;;;;;5096576;27;46367;-70
2022/05/26 06:14:14;;;;;;;;;0.00;0.00;;;;;;;;5097209;27;45308;-69
2022/05/26 06:16:40;;;;;;;;;0.00;0.00;;;;;;;;5096651;27;45347;-70
2022/05/26 06:19:05;;;;;;;;;0.00;0.00;;;;;;;;5096352;27;45380;-71
2022/05/26 06:21:31;;;;;;;;;0.75;0.75;;;;;;;;5096304;27;45629;-70
2022/05/26 06:23:57;;;;;;;;;1.50;1.00;;;;;;;;5096758;27;45469;-72
2022/05/26 06:26:23;;;;;;;;;0.25;0.25;;;;;;;;5097505;27;45338;-71
2022/05/26 06:31:32;;;;;;;;;1.00;1.00;;;;;;;;5096065;27;45537;-71
2022/05/26 06:37:13;;;;;;;;;0.00;0.00;;;;;;;;5054875;28;45445;-70
2022/05/26 06:39:38;;;;;;;;;3.00;0.00;;;;;;;;5054722;28;45442;-70
2022/05/26 06:42:07;;;;;;;;;0.00;0.00;;;;;;;;5054400;28;45532;-70
2022/05/26 06:44:33;;;;;;;;;0.00;0.00;;;;;;;;5053792;28;45324;-71
2022/05/26 06:46:58;;;;;;;;;2.75;1.75;;;;;;;;5054300;28;45361;-69
2022/05/26 06:49:24;;;;;;;;;1.00;0.00;;;;;;;;5048313;28;45495;-71
2022/05/26 06:51:49;;;;;;;;;2.00;0.25;;;;;;;;5045202;28;45357;-70
2022/05/26 06:54:14;;;;;;;;;2.75;1.00;;;;;;;;5024435;28;45476;-69
2022/05/26 06:56:39;;;;;;;;;1.00;1.00;;;;;;;;5054887;28;45417;-70
2022/05/26 06:59:05;;;;;;;;;3.50;3.50;;;;;;;;5053436;28;45376;-70
2022/05/26 07:01:30;;;;;;;;;0.50;0.00;;;;;;;;5052995;28;45609;-70
2022/05/26 07:03:55;;;;;;;;;0.00;0.00;;;;;;;;5053820;28;45517;-70
2022/05/26 07:06:22;;;;;;;;;0.00;0.00;;;;;;;;5053896;28;45836;-71
2022/05/26 07:08:47;;;;;;;;;1.25;1.25;;;;;;;;5054099;28;45414;-71
2022/05/26 07:11:13;;;;;;;;;0.00;0.00;;;;;;;;5052797;28;45395;-71
2022/05/26 07:13:38;;;;;;;;;2.75;1.00;;;;;;;;5080274;27;45818;-71
2022/05/26 07:16:04;;;;;;;;;0.00;0.00;;;;;;;;5095780;27;45379;-70
2022/05/26 07:18:29;;;;;;;;;0.00;0.00;;;;;;;;5096218;27;45541;-70
2022/05/26 07:20:55;;;;;;;;;1.50;1.00;;;;;;;;5096125;27;45399;-71
2022/05/26 07:23:20;;;;;;;;;0.75;0.75;;;;;;;;5096105;27;45408;-71
2022/05/26 07:25:46;;;;;;;;;0.00;0.00;;;;;;;;5095600;27;45454;-70
2022/05/26 07:28:14;;;;;;;;;0.25;0.00;;;;;;;;5095289;27;45322;-70
2022/05/26 07:30:40;;;;;;;;;0.00;0.00;;;;;;;;5095075;27;46359;-70
2022/05/26 07:33:05;;;;;;;;;0.00;0.00;;;;;;;;5095433;27;45372;-71
2022/05/26 07:35:31;;;;;;;;;1.00;0.25;;;;;;;;5096015;27;45702;-71
2022/05/26 07:43:25;;;;;;;;;0.75;0.00;;;;;;;;5094507;27;45242;-70
2022/05/26 07:45:50;;;;;;;;;2.00;0.00;;;;;;;;5094345;27;45365;-71
2022/05/26 07:48:16;;;;;;;;;2.00;1.00;;;;;;;;5095058;27;45313;-70
2022/05/26 07:50:41;;;;;;;;;5.75;1.75;;;;;;;;5094942;27;46118;-71
2022/05/26 07:53:06;;;;;;;;;3.50;3.25;;;;;;;;5095468;27;45558;-71
2022/05/26 07:55:32;;;;;;;;;2.00;2.00;;;;;;;;5094806;27;45433;-72
2022/05/26 07:57:58;;;;;;;;;4.25;3.00;;;;;;;;5094918;27;45467;-69
2022/05/26 08:00:23;;;;;;;;;11.00;11.00;;;;;;;;5094745;27;47068;-70
2022/05/26 08:02:49;;;;;;;;;3.00;3.00;;;;;;;;5094750;27;45293;-72
2022/05/26 08:05:14;;;;;;;;;4.00;4.00;;;;;;;;5095362;27;45448;-69
2022/05/26 08:07:39;;;;;;;;;6.50;5.00;;;;;;;;5094779;27;45467;-77
2022/05/26 08:10:05;;;;;;;;;5.25;4.25;;;;;;;;5095409;27;45583;-67
2022/05/26 08:12:30;;;;;;;;;4.25;3.00;;;;;;;;5094999;27;45486;-71
2022/05/26 08:14:55;;;;;;;;;2.00;2.00;;;;;;;;5095353;27;45538;-71
2022/05/26 08:17:22;;;;;;;;;4.00;2.00;;;;;;;;5096198;27;45543;-72
2022/05/26 08:19:48;;;;;;;;;3.25;3.25;;;;;;;;5095283;27;46432;-70
2022/05/26 08:22:13;;;;;;;;;7.75;5.75;;;;;;;;5095865;27;45467;-72
2022/05/26 08:24:39;;;;;;;;;9.50;5.25;;;;;;;;5101669;27;45455;-71
2022/05/26 08:27:04;;;;;;;;;3.25;3.25;;;;;;;;5102104;27;45506;-70
2022/05/26 08:29:29;;;;;;;;;4.25;3.75;;;;;;;;5101620;27;46168;-72
2022/05/26 08:31:54;;;;;;;;;3.00;3.00;;;;;;;;5102554;27;45431;-69
2022/05/26 08:34:20;;;;;;;;;46.50;33.25;;;;;;;;5101507;27;45404;-69
2022/05/26 08:36:46;;;;;;;;;8.75;6.00;;;;;;;;5101416;27;45280;-69
2022/05/26 08:39:12;;;;;;;;;8.00;6.00;;;;;;;;5101229;27;46173;-69
2022/05/26 08:41:42;;;;;;;;;3.00;2.00;;;;;;;;5101058;27;45363;-70
2022/05/26 08:44:12;;;;;;;;;9.75;9.75;;;;;;;;5099525;27;45417;-69
2022/05/26 08:46:44;;;;;;;;;4.00;4.00;;;;;;;;5102172;27;45309;-69
2022/05/26 08:49:09;;;;;;;;;6.25;4.25;;;;;;;;5101000;27;46941;-69
2022/05/26 08:51:48;;;;;;;;;3.75;3.00;;;;;;;;5101069;27;45311;-70
2022/05/26 08:54:22;;;;;;;;;3.75;3.75;;;;;;;;5101271;27;45778;-68
2022/05/26 08:56:47;;;;;;;;;7.75;6.25;;;;;;;;5100149;27;45383;-69
2022/05/26 08:59:14;;;;;;;;;6.75;6.00;;;;;;;;5101888;27;45923;-67
2022/05/26 09:01:39;;;;;;;;;9.50;8.50;;;;;;;;5101085;27;45601;-68
2022/05/26 09:04:04;;;;;;;;;7.00;7.00;;;;;;;;5100391;27;45353;-64
2022/05/26 09:12:55;;;;;;;;;7.00;7.00;;;;;;;;5101034;27;45378;-78
2022/05/26 09:14:50;;;;;;;;;6.25;5.00;;;;;;;;5100610;27;45366;-70
2022/05/26 09:17:15;;;;;;;;;3.25;2.50;;;;;;;;5101356;27;45287;-67
2022/05/26 09:19:44;;;;;;;;;6.00;5.00;;;;;;;;5103979;27;47099;-82
2022/05/26 09:22:38;;;;;;;;;5.25;5.25;;;;;;;;5101037;27;45399;-74
2022/05/26 09:25:10;;;;;;;;;4.50;4.50;;;;;;;;5088774;27;45469;-70
2022/05/26 09:27:36;;;;;;;;;5.50;4.00;;;;;;;;5101223;27;45512;-67
2022/05/26 09:30:21;;;;;;;;;4.25;3.25;;;;;;;;5100306;27;46304;-68
2022/05/26 09:32:47;;;;;;;;;2.00;1.00;;;;;;;;5103253;27;45386;-68
